sensor_id;sensor_type;location;lat;lon;timestamp;temperature;humidity
10802;DHT22;5453;50.852;7.102;2022-12-05T00:01:54;4.60;99.90
10802;DHT22;5453;50.852;7.102;2022-12-05T00:04:28;4.60;99.90
10802;DHT22;5453;50.852;7.102;2022-12-05T00:07:00;4.70;99.90
10802;DHT22;5453;50.852;7.102;2022-12-05T00:09:32;4.60;99.90
10802;DHT22;5453;50.852;7.102;2022-12-05T00:12:05;4.70;99.90
10802;DHT22;5453;50.852;7.102;2022-12-05T00:14:37;4.70;99.90
10802;DHT22;5453;50.852;7.102;2022-12-05T00:17:09;4.60;99.90
10802;DHT22;5453;50.852;7.102;2022-12-05T00:19:42;4.70;99.90
10802;DHT22;5453;50.852;7.102;2022-12-05T00:22:14;4.70;99.90
10802;DHT22;5453;50.852;7.102;2022-12-05T00:24:47;4.60;99.90
10802;DHT22;5453;50.852;7.102;2022-12-05T00:27:19;4.60;99.90
10802;DHT22;5453;50.852;7.102;2022-12-05T00:29:51;4.70;99.90
10802;DHT22;5453;50.852;7.102;2022-12-05T00:32:23;4.70;99.90
10802;DHT22;5453;50.852;7.102;2022-12-05T00:34:57;4.70;99.90
10802;DHT22;5453;50.852;7.102;2022-12-05T00:37:30;4.70;99.90
10802;DHT22;5453;50.852;7.102;2022-12-05T00:40:03;4.60;99.90
10802;DHT22;5453;50.852;7.102;2022-12-05T00:42:36;4.60;99.90
10802;DHT22;5453;50.852;7.102;2022-12-05T00:45:09;4.60;99.90
10802;DHT22;5453;50.852;7.102;2022-12-05T00:47:41;4.60;99.90
10802;DHT22;5453;50.852;7.102;2022-12-05T00:50:16;4.60;99.90
10802;DHT22;5453;50.852;7.102;2022-12-05T00:52:48;4.60;99.90
10802;DHT22;5453;50.852;7.102;2022-12-05T00:55:20;4.70;99.90
10802;DHT22;5453;50.852;7.102;2022-12-05T00:57:52;4.60;99.90
10802;DHT22;5453;50.852;7.102;2022-12-05T01:00:24;4.60;99.90
10802;DHT22;5453;50.852;7.102;2022-12-05T01:02:56;4.70;99.90
10802;DHT22;5453;50.852;7.102;2022-12-05T01:05:32;4.60;99.90
10802;DHT22;5453;50.852;7.102;2022-12-05T01:08:04;4.60;99.90
10802;DHT22;5453;50.852;7.102;2022-12-05T01:10:37;4.60;99.90
10802;DHT22;5453;50.852;7.102;2022-12-05T01:13:09;4.60;99.90
10802;DHT22;5453;50.852;7.102;2022-12-05T01:15:41;4.60;99.90
10802;DHT22;5453;50.852;7.102;2022-12-05T01:18:14;4.60;99.90
10802;DHT22;5453;50.852;7.102;2022-12-05T01:20:48;4.60;99.90
10802;DHT22;5453;50.852;7.102;2022-12-05T01:23:21;4.60;99.90
10802;DHT22;5453;50.852;7.102;2022-12-05T01:25:53;4.70;99.90
10802;DHT22;5453;50.852;7.102;2022-12-05T01:28:25;4.60;99.90
10802;DHT22;5453;50.852;7.102;2022-12-05T01:30:57;4.60;99.90
10802;DHT22;5453;50.852;7.102;2022-12-05T01:33:29;4.60;99.90
10802;DHT22;5453;50.852;7.102;2022-12-05T01:36:04;4.60;99.90
10802;DHT22;5453;50.852;7.102;2022-12-05T01:38:37;4.60;99.90
10802;DHT22;5453;50.852;7.102;2022-12-05T01:41:13;4.60;99.90
10802;DHT22;5453;50.852;7.102;2022-12-05T01:43:59;4.70;99.90
10802;DHT22;5453;50.852;7.102;2022-12-05T01:46:36;4.60;99.90
10802;DHT22;5453;50.852;7.102;2022-12-05T01:49:12;4.70;99.90
10802;DHT22;5453;50.852;7.102;2022-12-05T01:51:48;4.70;99.90
10802;DHT22;5453;50.852;7.102;2022-12-05T01:54:23;4.70;99.90
10802;DHT22;5453;50.852;7.102;2022-12-05T01:56:58;4.70;99.90
10802;DHT22;5453;50.852;7.102;2022-12-05T01:59:41;4.70;99.90
10802;DHT22;5453;50.852;7.102;2022-12-05T02:02:15;4.70;99.90
10802;DHT22;5453;50.852;7.102;2022-12-05T02:04:53;4.70;99.90
10802;DHT22;5453;50.852;7.102;2022-12-05T02:07:31;4.60;99.90
10802;DHT22;5453;50.852;7.102;2022-12-05T02:10:05;4.60;99.90
10802;DHT22;5453;50.852;7.102;2022-12-05T02:12:39;4.70;99.90
10802;DHT22;5453;50.852;7.102;2022-12-05T02:15:24;4.60;99.90
10802;DHT22;5453;50.852;7.102;2022-12-05T02:18:03;4.70;99.90
10802;DHT22;5453;50.852;7.102;2022-12-05T02:20:59;4.60;99.90
10802;DHT22;5453;50.852;7.102;2022-12-05T02:24:09;4.60;99.90
10802;DHT22;5453;50.852;7.102;2022-12-05T02:26:58;4.60;99.90
10802;DHT22;5453;50.852;7.102;2022-12-05T02:29:50;4.50;99.90
10802;DHT22;5453;50.852;7.102;2022-12-05T02:32:51;4.40;99.90
10802;DHT22;5453;50.852;7.102;2022-12-05T02:35:41;4.40;99.90
10802;DHT22;5453;50.852;7.102;2022-12-05T02:38:26;4.40;99.90
10802;DHT22;5453;50.852;7.102;2022-12-05T02:41:08;4.40;99.90
10802;DHT22;5453;50.852;7.102;2022-12-05T02:43:49;4.40;99.90
10802;DHT22;5453;50.852;7.102;2022-12-05T02:46:28;4.30;99.90
10802;DHT22;5453;50.852;7.102;2022-12-05T02:49:03;4.30;99.90
10802;DHT22;5453;50.852;7.102;2022-12-05T02:51:41;4.30;99.90
10802;DHT22;5453;50.852;7.102;2022-12-05T02:54:18;4.20;99.90
10802;DHT22;5453;50.852;7.102;2022-12-05T02:56:52;4.20;99.90
10802;DHT22;5453;50.852;7.102;2022-12-05T02:59:25;4.20;99.90
10802;DHT22;5453;50.852;7.102;2022-12-05T03:01:59;4.20;99.90
10802;DHT22;5453;50.852;7.102;2022-12-05T03:04:31;4.20;99.90
10802;DHT22;5453;50.852;7.102;2022-12-05T03:07:06;4.10;99.90
10802;DHT22;5453;50.852;7.102;2022-12-05T03:09:44;4.10;99.90
10802;DHT22;5453;50.852;7.102;2022-12-05T03:12:21;4.10;99.90
10802;DHT22;5453;50.852;7.102;2022-12-05T03:14:59;4.10;99.90
10802;DHT22;5453;50.852;7.102;2022-12-05T03:17:38;4.10;99.90
10802;DHT22;5453;50.852;7.102;2022-12-05T03:20:19;4.00;99.90
10802;DHT22;5453;50.852;7.102;2022-12-05T03:22:57;3.90;99.90
10802;DHT22;5453;50.852;7.102;2022-12-05T03:25:37;3.90;99.90
10802;DHT22;5453;50.852;7.102;2022-12-05T03:28:19;3.80;99.90
10802;DHT22;5453;50.852;7.102;2022-12-05T03:30:56;3.80;99.90
10802;DHT22;5453;50.852;7.102;2022-12-05T03:33:36;3.70;99.90
10802;DHT22;5453;50.852;7.102;2022-12-05T03:36:14;3.70;99.90
10802;DHT22;5453;50.852;7.102;2022-12-05T03:38:52;3.70;99.90
10802;DHT22;5453;50.852;7.102;2022-12-05T03:41:32;3.70;99.90
10802;DHT22;5453;50.852;7.102;2022-12-05T03:44:11;3.60;99.90
10802;DHT22;5453;50.852;7.102;2022-12-05T03:46:47;3.60;99.90
10802;DHT22;5453;50.852;7.102;2022-12-05T03:49:28;3.60;99.90
10802;DHT22;5453;50.852;7.102;2022-12-05T03:52:07;3.60;99.90
10802;DHT22;5453;50.852;7.102;2022-12-05T03:54:44;3.50;99.90
10802;DHT22;5453;50.852;7.102;2022-12-05T03:57:21;3.60;99.90
10802;DHT22;5453;50.852;7.102;2022-12-05T03:59:57;3.60;99.90
10802;DHT22;5453;50.852;7.102;2022-12-05T04:02:33;3.50;99.90
10802;DHT22;5453;50.852;7.102;2022-12-05T04:05:20;3.50;99.90
10802;DHT22;5453;50.852;7.102;2022-12-05T04:07:57;3.40;99.90
10802;DHT22;5453;50.852;7.102;2022-12-05T04:10:35;3.40;99.90
10802;DHT22;5453;50.852;7.102;2022-12-05T04:13:23;3.40;99.90
10802;DHT22;5453;50.852;7.102;2022-12-05T04:16:04;3.40;99.90
10802;DHT22;5453;50.852;7.102;2022-12-05T04:19:02;3.40;99.90
10802;DHT22;5453;50.852;7.102;2022-12-05T04:21:40;3.40;99.90
10802;DHT22;5453;50.852;7.102;2022-12-05T04:24:17;3.40;99.90
10802;DHT22;5453;50.852;7.102;2022-12-05T04:27:21;3.40;99.90
10802;DHT22;5453;50.852;7.102;2022-12-05T04:30:01;3.40;99.90
10802;DHT22;5453;50.852;7.102;2022-12-05T04:32:44;3.40;99.90
10802;DHT22;5453;50.852;7.102;2022-12-05T04:35:21;3.40;99.90
10802;DHT22;5453;50.852;7.102;2022-12-05T04:38:01;3.40;99.90
10802;DHT22;5453;50.852;7.102;2022-12-05T04:40:39;3.40;99.90
10802;DHT22;5453;50.852;7.102;2022-12-05T04:43:16;3.30;99.90
10802;DHT22;5453;50.852;7.102;2022-12-05T04:45:50;3.30;99.90
10802;DHT22;5453;50.852;7.102;2022-12-05T04:48:25;3.30;99.90
10802;DHT22;5453;50.852;7.102;2022-12-05T04:50:58;3.30;99.90
10802;DHT22;5453;50.852;7.102;2022-12-05T04:53:32;3.30;99.90
10802;DHT22;5453;50.852;7.102;2022-12-05T04:56:05;3.30;99.90
10802;DHT22;5453;50.852;7.102;2022-12-05T04:58:38;3.30;99.90
10802;DHT22;5453;50.852;7.102;2022-12-05T05:01:14;3.30;99.90
10802;DHT22;5453;50.852;7.102;2022-12-05T05:03:51;3.20;99.90
10802;DHT22;5453;50.852;7.102;2022-12-05T05:06:27;3.30;99.90
10802;DHT22;5453;50.852;7.102;2022-12-05T05:09:01;3.20;99.90
10802;DHT22;5453;50.852;7.102;2022-12-05T05:11:35;3.20;99.90
10802;DHT22;5453;50.852;7.102;2022-12-05T05:14:08;3.20;99.90
10802;DHT22;5453;50.852;7.102;2022-12-05T05:16:41;3.20;99.90
10802;DHT22;5453;50.852;7.102;2022-12-05T05:19:15;3.20;99.90
10802;DHT22;5453;50.852;7.102;2022-12-05T05:21:47;3.20;99.90
10802;DHT22;5453;50.852;7.102;2022-12-05T05:24:21;3.20;99.90
10802;DHT22;5453;50.852;7.102;2022-12-05T05:26:55;3.20;99.90
10802;DHT22;5453;50.852;7.102;2022-12-05T05:29:28;3.20;99.90
10802;DHT22;5453;50.852;7.102;2022-12-05T05:32:00;3.20;99.90
10802;DHT22;5453;50.852;7.102;2022-12-05T05:34:32;3.20;99.90
10802;DHT22;5453;50.852;7.102;2022-12-05T05:37:05;3.20;99.90
10802;DHT22;5453;50.852;7.102;2022-12-05T05:39:39;3.20;99.90
10802;DHT22;5453;50.852;7.102;2022-12-05T05:42:12;3.20;99.90
10802;DHT22;5453;50.852;7.102;2022-12-05T05:44:44;3.20;99.90
10802;DHT22;5453;50.852;7.102;2022-12-05T05:47:16;3.20;99.90
10802;DHT22;5453;50.852;7.102;2022-12-05T05:49:49;3.20;99.90
10802;DHT22;5453;50.852;7.102;2022-12-05T05:52:21;3.20;99.90
10802;DHT22;5453;50.852;7.102;2022-12-05T05:54:55;3.20;99.90
10802;DHT22;5453;50.852;7.102;2022-12-05T05:57:29;3.30;99.90
10802;DHT22;5453;50.852;7.102;2022-12-05T06:00:03;3.30;99.90
10802;DHT22;5453;50.852;7.102;2022-12-05T06:02:37;3.30;99.90
10802;DHT22;5453;50.852;7.102;2022-12-05T06:05:09;3.20;99.90
10802;DHT22;5453;50.852;7.102;2022-12-05T06:07:41;3.20;99.90
10802;DHT22;5453;50.852;7.102;2022-12-05T06:10:16;3.20;99.90
10802;DHT22;5453;50.852;7.102;2022-12-05T06:12:48;3.20;99.90
10802;DHT22;5453;50.852;7.102;2022-12-05T06:15:22;3.20;99.90
10802;DHT22;5453;50.852;7.102;2022-12-05T06:17:55;3.30;99.90
10802;DHT22;5453;50.852;7.102;2022-12-05T06:20:27;3.30;99.90
10802;DHT22;5453;50.852;7.102;2022-12-05T06:22:59;3.20;99.90
10802;DHT22;5453;50.852;7.102;2022-12-05T06:25:34;3.20;99.90
10802;DHT22;5453;50.852;7.102;2022-12-05T06:28:07;3.20;99.90
10802;DHT22;5453;50.852;7.102;2022-12-05T06:30:40;3.30;99.90
10802;DHT22;5453;50.852;7.102;2022-12-05T06:33:12;3.30;99.90
10802;DHT22;5453;50.852;7.102;2022-12-05T06:35:44;3.20;99.90
10802;DHT22;5453;50.852;7.102;2022-12-05T06:38:16;3.30;99.90
10802;DHT22;5453;50.852;7.102;2022-12-05T06:40:51;3.30;99.90
10802;DHT22;5453;50.852;7.102;2022-12-05T06:43:23;3.30;99.90
10802;DHT22;5453;50.852;7.102;2022-12-05T06:45:55;3.30;99.90
10802;DHT22;5453;50.852;7.102;2022-12-05T06:48:27;3.30;99.90
10802;DHT22;5453;50.852;7.102;2022-12-05T06:51:00;3.30;99.90
10802;DHT22;5453;50.852;7.102;2022-12-05T06:53:32;3.30;99.90
10802;DHT22;5453;50.852;7.102;2022-12-05T06:56:08;3.30;99.90
10802;DHT22;5453;50.852;7.102;2022-12-05T06:58:43;3.30;99.90
10802;DHT22;5453;50.852;7.102;2022-12-05T07:01:20;3.30;99.90
10802;DHT22;5453;50.852;7.102;2022-12-05T07:04:12;3.30;99.90
10802;DHT22;5453;50.852;7.102;2022-12-05T07:06:46;3.30;99.90
10802;DHT22;5453;50.852;7.102;2022-12-05T07:09:20;3.30;99.90
10802;DHT22;5453;50.852;7.102;2022-12-05T07:12:16;3.40;99.90
10802;DHT22;5453;50.852;7.102;2022-12-05T07:14:49;3.40;99.90
10802;DHT22;5453;50.852;7.102;2022-12-05T07:17:21;3.40;99.90
10802;DHT22;5453;50.852;7.102;2022-12-05T07:19:53;3.40;99.90
10802;DHT22;5453;50.852;7.102;2022-12-05T07:22:25;3.40;99.90
10802;DHT22;5453;50.852;7.102;2022-12-05T07:24:58;3.40;99.90
10802;DHT22;5453;50.852;7.102;2022-12-05T07:27:31;3.40;99.90
10802;DHT22;5453;50.852;7.102;2022-12-05T07:30:05;3.40;99.90
10802;DHT22;5453;50.852;7.102;2022-12-05T07:32:38;3.40;99.90
10802;DHT22;5453;50.852;7.102;2022-12-05T07:35:10;3.30;99.90
10802;DHT22;5453;50.852;7.102;2022-12-05T07:37:42;3.40;99.90
10802;DHT22;5453;50.852;7.102;2022-12-05T07:40:14;3.40;99.90
10802;DHT22;5453;50.852;7.102;2022-12-05T07:42:48;3.40;99.90
10802;DHT22;5453;50.852;7.102;2022-12-05T07:45:20;3.40;99.90
10802;DHT22;5453;50.852;7.102;2022-12-05T07:47:52;3.50;99.90
10802;DHT22;5453;50.852;7.102;2022-12-05T07:50:25;3.50;99.90
10802;DHT22;5453;50.852;7.102;2022-12-05T07:52:57;3.50;99.90
10802;DHT22;5453;50.852;7.102;2022-12-05T07:55:29;3.50;99.90
10802;DHT22;5453;50.852;7.102;2022-12-05T07:58:02;3.50;99.90
10802;DHT22;5453;50.852;7.102;2022-12-05T08:00:34;3.50;99.90
10802;DHT22;5453;50.852;7.102;2022-12-05T08:03:06;3.50;99.90
10802;DHT22;5453;50.852;7.102;2022-12-05T08:05:38;4.00;99.90
10802;DHT22;5453;50.852;7.102;2022-12-05T08:08:10;4.00;99.90
10802;DHT22;5453;50.852;7.102;2022-12-05T08:10:42;4.00;99.90
10802;DHT22;5453;50.852;7.102;2022-12-05T08:13:16;3.90;99.90
10802;DHT22;5453;50.852;7.102;2022-12-05T08:15:48;3.90;99.90
10802;DHT22;5453;50.852;7.102;2022-12-05T08:18:20;3.90;99.90
10802;DHT22;5453;50.852;7.102;2022-12-05T08:20:52;4.00;99.90
10802;DHT22;5453;50.852;7.102;2022-12-05T08:23:24;3.90;99.90
10802;DHT22;5453;50.852;7.102;2022-12-05T08:26:00;3.90;99.90
10802;DHT22;5453;50.852;7.102;2022-12-05T08:28:35;3.90;99.90
10802;DHT22;5453;50.852;7.102;2022-12-05T08:31:09;3.90;99.90
10802;DHT22;5453;50.852;7.102;2022-12-05T08:33:43;3.90;99.90
10802;DHT22;5453;50.852;7.102;2022-12-05T08:36:16;3.90;99.90
10802;DHT22;5453;50.852;7.102;2022-12-05T08:38:48;3.80;99.90
10802;DHT22;5453;50.852;7.102;2022-12-05T08:41:20;3.80;99.90
10802;DHT22;5453;50.852;7.102;2022-12-05T08:44:00;3.90;99.90
10802;DHT22;5453;50.852;7.102;2022-12-05T08:46:36;3.90;99.90
10802;DHT22;5453;50.852;7.102;2022-12-05T08:49:10;3.90;99.90
10802;DHT22;5453;50.852;7.102;2022-12-05T08:51:43;4.00;99.90
10802;DHT22;5453;50.852;7.102;2022-12-05T08:54:15;4.00;99.90
10802;DHT22;5453;50.852;7.102;2022-12-05T08:56:49;4.00;99.90
10802;DHT22;5453;50.852;7.102;2022-12-05T08:59:23;4.00;99.90
10802;DHT22;5453;50.852;7.102;2022-12-05T09:01:55;4.00;99.90
10802;DHT22;5453;50.852;7.102;2022-12-05T09:04:28;4.10;99.90
10802;DHT22;5453;50.852;7.102;2022-12-05T09:07:00;4.10;99.90
10802;DHT22;5453;50.852;7.102;2022-12-05T09:09:33;4.10;99.90
10802;DHT22;5453;50.852;7.102;2022-12-05T09:12:05;4.20;99.90
10802;DHT22;5453;50.852;7.102;2022-12-05T09:14:38;4.20;99.90
10802;DHT22;5453;50.852;7.102;2022-12-05T09:17:11;4.20;99.90
10802;DHT22;5453;50.852;7.102;2022-12-05T09:19:43;4.30;99.90
10802;DHT22;5453;50.852;7.102;2022-12-05T09:22:15;4.30;99.90
10802;DHT22;5453;50.852;7.102;2022-12-05T09:24:47;4.30;99.90
10802;DHT22;5453;50.852;7.102;2022-12-05T09:27:19;4.30;99.90
10802;DHT22;5453;50.852;7.102;2022-12-05T09:29:53;4.30;99.90
10802;DHT22;5453;50.852;7.102;2022-12-05T09:32:25;4.20;99.90
10802;DHT22;5453;50.852;7.102;2022-12-05T09:34:57;4.30;99.90
10802;DHT22;5453;50.852;7.102;2022-12-05T09:37:29;4.30;99.90
10802;DHT22;5453;50.852;7.102;2022-12-05T09:40:01;4.30;99.90
10802;DHT22;5453;50.852;7.102;2022-12-05T09:42:38;4.40;99.90
10802;DHT22;5453;50.852;7.102;2022-12-05T09:45:22;4.40;99.90
10802;DHT22;5453;50.852;7.102;2022-12-05T09:47:59;4.40;99.90
10802;DHT22;5453;50.852;7.102;2022-12-05T09:50:43;4.40;99.90
10802;DHT22;5453;50.852;7.102;2022-12-05T09:53:23;4.40;99.90
10802;DHT22;5453;50.852;7.102;2022-12-05T09:56:02;4.40;99.90
10802;DHT22;5453;50.852;7.102;2022-12-05T09:58:40;4.40;99.90
10802;DHT22;5453;50.852;7.102;2022-12-05T10:01:31;4.40;99.90
10802;DHT22;5453;50.852;7.102;2022-12-05T10:04:20;4.40;99.90
10802;DHT22;5453;50.852;7.102;2022-12-05T10:07:04;4.60;99.90
10802;DHT22;5453;50.852;7.102;2022-12-05T10:09:55;4.50;99.90
10802;DHT22;5453;50.852;7.102;2022-12-05T10:12:42;4.50;99.90
10802;DHT22;5453;50.852;7.102;2022-12-05T10:15:26;4.60;99.90
10802;DHT22;5453;50.852;7.102;2022-12-05T10:18:10;4.60;99.90
10802;DHT22;5453;50.852;7.102;2022-12-05T10:20:48;4.60;99.90
10802;DHT22;5453;50.852;7.102;2022-12-05T10:23:24;4.60;99.90
10802;DHT22;5453;50.852;7.102;2022-12-05T10:26:02;4.60;99.90
10802;DHT22;5453;50.852;7.102;2022-12-05T10:28:40;4.50;99.90
10802;DHT22;5453;50.852;7.102;2022-12-05T10:31:19;4.60;99.90
10802;DHT22;5453;50.852;7.102;2022-12-05T10:34:02;4.80;99.90
10802;DHT22;5453;50.852;7.102;2022-12-05T10:36:36;4.80;99.90
10802;DHT22;5453;50.852;7.102;2022-12-05T10:39:09;4.90;99.90
10802;DHT22;5453;50.852;7.102;2022-12-05T10:41:41;4.90;99.90
10802;DHT22;5453;50.852;7.102;2022-12-05T10:44:13;4.80;99.90
10802;DHT22;5453;50.852;7.102;2022-12-05T10:46:45;4.80;99.90
10802;DHT22;5453;50.852;7.102;2022-12-05T10:49:19;4.80;99.90
10802;DHT22;5453;50.852;7.102;2022-12-05T10:51:51;4.80;99.90
10802;DHT22;5453;50.852;7.102;2022-12-05T10:54:28;4.70;99.90
10802;DHT22;5453;50.852;7.102;2022-12-05T10:57:19;4.70;99.90
10802;DHT22;5453;50.852;7.102;2022-12-05T10:59:53;4.60;99.90
10802;DHT22;5453;50.852;7.102;2022-12-05T11:02:28;4.60;99.90
10802;DHT22;5453;50.852;7.102;2022-12-05T11:05:04;4.60;99.90
10802;DHT22;5453;50.852;7.102;2022-12-05T11:07:44;4.60;99.90
10802;DHT22;5453;50.852;7.102;2022-12-05T11:10:21;4.60;99.90
10802;DHT22;5453;50.852;7.102;2022-12-05T11:12:55;4.60;99.90
10802;DHT22;5453;50.852;7.102;2022-12-05T11:15:29;4.60;99.90
10802;DHT22;5453;50.852;7.102;2022-12-05T11:18:17;4.60;99.90
10802;DHT22;5453;50.852;7.102;2022-12-05T11:20:55;4.60;99.90
10802;DHT22;5453;50.852;7.102;2022-12-05T11:23:29;4.60;99.90
10802;DHT22;5453;50.852;7.102;2022-12-05T11:26:01;4.70;99.90
10802;DHT22;5453;50.852;7.102;2022-12-05T11:28:35;4.70;99.90
10802;DHT22;5453;50.852;7.102;2022-12-05T11:31:21;4.70;99.90
10802;DHT22;5453;50.852;7.102;2022-12-05T11:34:19;4.60;99.90
10802;DHT22;5453;50.852;7.102;2022-12-05T11:36:59;4.60;99.90
10802;DHT22;5453;50.852;7.102;2022-12-05T11:39:33;4.60;99.90
10802;DHT22;5453;50.852;7.102;2022-12-05T11:42:18;4.70;99.90
10802;DHT22;5453;50.852;7.102;2022-12-05T11:48:22;4.70;99.90
10802;DHT22;5453;50.852;7.102;2022-12-05T11:51:15;4.80;99.90
10802;DHT22;5453;50.852;7.102;2022-12-05T11:54:07;4.80;99.90
10802;DHT22;5453;50.852;7.102;2022-12-05T11:56:58;4.80;99.90
10802;DHT22;5453;50.852;7.102;2022-12-05T11:59:54;4.70;99.90
10802;DHT22;5453;50.852;7.102;2022-12-05T12:03:00;4.80;99.90
10802;DHT22;5453;50.852;7.102;2022-12-05T12:05:49;4.70;99.90
10802;DHT22;5453;50.852;7.102;2022-12-05T12:08:27;4.80;99.90
10802;DHT22;5453;50.852;7.102;2022-12-05T12:11:06;4.80;99.90
10802;DHT22;5453;50.852;7.102;2022-12-05T12:13:53;4.80;99.90
10802;DHT22;5453;50.852;7.102;2022-12-05T12:16:35;4.80;99.90
10802;DHT22;5453;50.852;7.102;2022-12-05T12:19:29;4.80;99.90
10802;DHT22;5453;50.852;7.102;2022-12-05T12:22:20;4.80;99.90
10802;DHT22;5453;50.852;7.102;2022-12-05T12:25:16;4.80;99.90
10802;DHT22;5453;50.852;7.102;2022-12-05T12:28:03;4.80;99.90
10802;DHT22;5453;50.852;7.102;2022-12-05T12:30:57;4.80;99.90
10802;DHT22;5453;50.852;7.102;2022-12-05T12:33:36;4.80;99.90
10802;DHT22;5453;50.852;7.102;2022-12-05T12:36:16;4.80;99.90
10802;DHT22;5453;50.852;7.102;2022-12-05T12:39:02;4.80;99.90
10802;DHT22;5453;50.852;7.102;2022-12-05T12:41:51;4.80;99.90
10802;DHT22;5453;50.852;7.102;2022-12-05T12:48:08;4.80;99.90
10802;DHT22;5453;50.852;7.102;2022-12-05T12:50:50;4.80;99.90
10802;DHT22;5453;50.852;7.102;2022-12-05T12:53:39;4.80;99.90
10802;DHT22;5453;50.852;7.102;2022-12-05T12:56:38;4.90;99.90
10802;DHT22;5453;50.852;7.102;2022-12-05T12:59:35;4.90;99.90
10802;DHT22;5453;50.852;7.102;2022-12-05T13:02:23;4.90;99.90
10802;DHT22;5453;50.852;7.102;2022-12-05T13:05:00;4.90;99.90
10802;DHT22;5453;50.852;7.102;2022-12-05T13:07:41;4.90;99.90
10802;DHT22;5453;50.852;7.102;2022-12-05T13:10:22;4.90;99.90
10802;DHT22;5453;50.852;7.102;2022-12-05T13:12:57;4.90;99.90
10802;DHT22;5453;50.852;7.102;2022-12-05T13:15:33;4.90;99.90
10802;DHT22;5453;50.852;7.102;2022-12-05T13:18:16;4.90;99.90
10802;DHT22;5453;50.852;7.102;2022-12-05T13:20:51;4.90;99.90
10802;DHT22;5453;50.852;7.102;2022-12-05T13:23:25;4.90;99.90
10802;DHT22;5453;50.852;7.102;2022-12-05T13:25:59;4.90;99.90
10802;DHT22;5453;50.852;7.102;2022-12-05T13:28:35;4.90;99.90
10802;DHT22;5453;50.852;7.102;2022-12-05T13:31:11;5.00;99.90
10802;DHT22;5453;50.852;7.102;2022-12-05T13:33:49;4.90;99.90
10802;DHT22;5453;50.852;7.102;2022-12-05T13:36:22;4.90;99.90
10802;DHT22;5453;50.852;7.102;2022-12-05T13:39:19;5.00;99.90
10802;DHT22;5453;50.852;7.102;2022-12-05T13:42:20;4.90;99.90
10802;DHT22;5453;50.852;7.102;2022-12-05T13:44:56;4.90;99.90
10802;DHT22;5453;50.852;7.102;2022-12-05T13:47:32;4.90;99.90
10802;DHT22;5453;50.852;7.102;2022-12-05T13:50:13;4.90;99.90
10802;DHT22;5453;50.852;7.102;2022-12-05T13:52:49;4.90;99.90
10802;DHT22;5453;50.852;7.102;2022-12-05T13:55:27;4.90;99.90
10802;DHT22;5453;50.852;7.102;2022-12-05T13:58:04;4.90;99.90
10802;DHT22;5453;50.852;7.102;2022-12-05T14:01:43;5.00;99.90
10802;DHT22;5453;50.852;7.102;2022-12-05T14:04:43;4.90;99.90
10802;DHT22;5453;50.852;7.102;2022-12-05T14:07:40;4.90;99.90
10802;DHT22;5453;50.852;7.102;2022-12-05T14:10:15;4.90;99.90
10802;DHT22;5453;50.852;7.102;2022-12-05T14:12:55;4.90;99.90
10802;DHT22;5453;50.852;7.102;2022-12-05T14:15:30;4.90;99.90
10802;DHT22;5453;50.852;7.102;2022-12-05T14:18:12;4.90;99.90
10802;DHT22;5453;50.852;7.102;2022-12-05T14:20:50;4.90;99.90
10802;DHT22;5453;50.852;7.102;2022-12-05T14:23:37;4.90;99.90
10802;DHT22;5453;50.852;7.102;2022-12-05T14:26:33;4.80;99.90
10802;DHT22;5453;50.852;7.102;2022-12-05T14:29:36;4.80;99.90
10802;DHT22;5453;50.852;7.102;2022-12-05T14:32:19;4.80;99.90
10802;DHT22;5453;50.852;7.102;2022-12-05T14:34:56;4.80;99.90
10802;DHT22;5453;50.852;7.102;2022-12-05T14:37:35;4.80;99.90
10802;DHT22;5453;50.852;7.102;2022-12-05T14:40:20;4.80;99.90
10802;DHT22;5453;50.852;7.102;2022-12-05T14:43:00;4.80;99.90
10802;DHT22;5453;50.852;7.102;2022-12-05T14:45:36;4.80;99.90
10802;DHT22;5453;50.852;7.102;2022-12-05T14:48:26;4.80;99.90
10802;DHT22;5453;50.852;7.102;2022-12-05T14:51:03;4.80;99.90
10802;DHT22;5453;50.852;7.102;2022-12-05T14:54:15;4.70;99.90
10802;DHT22;5453;50.852;7.102;2022-12-05T14:56:51;4.80;99.90
10802;DHT22;5453;50.852;7.102;2022-12-05T14:59:43;4.70;99.90
10802;DHT22;5453;50.852;7.102;2022-12-05T15:02:21;4.70;99.90
10802;DHT22;5453;50.852;7.102;2022-12-05T15:05:00;4.70;99.90
10802;DHT22;5453;50.852;7.102;2022-12-05T15:07:37;4.70;99.90
10802;DHT22;5453;50.852;7.102;2022-12-05T15:10:16;4.70;99.90
10802;DHT22;5453;50.852;7.102;2022-12-05T15:12:56;4.70;99.90
10802;DHT22;5453;50.852;7.102;2022-12-05T15:15:34;4.60;99.90
10802;DHT22;5453;50.852;7.102;2022-12-05T15:18:15;4.60;99.90
10802;DHT22;5453;50.852;7.102;2022-12-05T15:20:55;4.60;99.90
10802;DHT22;5453;50.852;7.102;2022-12-05T15:23:39;4.60;99.90
10802;DHT22;5453;50.852;7.102;2022-12-05T15:26:18;4.70;99.90
10802;DHT22;5453;50.852;7.102;2022-12-05T15:29:02;4.70;99.90
10802;DHT22;5453;50.852;7.102;2022-12-05T15:31:39;4.70;99.90
10802;DHT22;5453;50.852;7.102;2022-12-05T15:34:19;4.70;99.90
10802;DHT22;5453;50.852;7.102;2022-12-05T15:36:57;4.70;99.90
10802;DHT22;5453;50.852;7.102;2022-12-05T15:39:51;4.70;99.90
10802;DHT22;5453;50.852;7.102;2022-12-05T15:42:27;4.70;99.90
10802;DHT22;5453;50.852;7.102;2022-12-05T15:45:21;4.70;99.90
10802;DHT22;5453;50.852;7.102;2022-12-05T15:47:56;4.70;99.90
10802;DHT22;5453;50.852;7.102;2022-12-05T15:50:43;4.70;99.90
10802;DHT22;5453;50.852;7.102;2022-12-05T15:53:24;4.70;99.90
10802;DHT22;5453;50.852;7.102;2022-12-05T15:56:03;4.60;99.90
10802;DHT22;5453;50.852;7.102;2022-12-05T15:58:40;4.70;99.90
10802;DHT22;5453;50.852;7.102;2022-12-05T16:01:19;4.60;99.90
10802;DHT22;5453;50.852;7.102;2022-12-05T16:03:54;4.60;99.90
10802;DHT22;5453;50.852;7.102;2022-12-05T16:06:31;4.60;99.90
10802;DHT22;5453;50.852;7.102;2022-12-05T16:09:07;4.60;99.90
10802;DHT22;5453;50.852;7.102;2022-12-05T16:11:50;4.70;99.90
10802;DHT22;5453;50.852;7.102;2022-12-05T16:14:27;4.70;99.90
10802;DHT22;5453;50.852;7.102;2022-12-05T16:17:04;4.60;99.90
10802;DHT22;5453;50.852;7.102;2022-12-05T16:19:39;4.60;99.90
10802;DHT22;5453;50.852;7.102;2022-12-05T16:22:19;4.60;99.90
10802;DHT22;5453;50.852;7.102;2022-12-05T16:24:54;4.60;99.90
10802;DHT22;5453;50.852;7.102;2022-12-05T16:27:33;4.50;99.90
10802;DHT22;5453;50.852;7.102;2022-12-05T16:30:08;4.40;99.90
10802;DHT22;5453;50.852;7.102;2022-12-05T16:32:49;4.40;99.90
10802;DHT22;5453;50.852;7.102;2022-12-05T16:35:35;4.30;99.90
10802;DHT22;5453;50.852;7.102;2022-12-05T16:38:13;4.20;99.90
10802;DHT22;5453;50.852;7.102;2022-12-05T16:40:53;4.20;99.90
10802;DHT22;5453;50.852;7.102;2022-12-05T16:43:40;4.20;99.90
10802;DHT22;5453;50.852;7.102;2022-12-05T16:46:40;4.20;99.90
10802;DHT22;5453;50.852;7.102;2022-12-05T16:49:18;4.10;99.90
10802;DHT22;5453;50.852;7.102;2022-12-05T16:51:58;4.10;99.90
10802;DHT22;5453;50.852;7.102;2022-12-05T16:54:32;4.10;99.90
10802;DHT22;5453;50.852;7.102;2022-12-05T16:57:04;4.10;99.90
10802;DHT22;5453;50.852;7.102;2022-12-05T16:59:38;4.00;99.90
10802;DHT22;5453;50.852;7.102;2022-12-05T17:02:13;4.00;99.90
10802;DHT22;5453;50.852;7.102;2022-12-05T17:04:47;4.00;99.90
10802;DHT22;5453;50.852;7.102;2022-12-05T17:07:20;4.00;99.90
10802;DHT22;5453;50.852;7.102;2022-12-05T17:09:52;4.10;99.90
10802;DHT22;5453;50.852;7.102;2022-12-05T17:12:24;4.10;99.90
10802;DHT22;5453;50.852;7.102;2022-12-05T17:14:56;4.10;99.90
10802;DHT22;5453;50.852;7.102;2022-12-05T17:17:28;4.20;99.90
10802;DHT22;5453;50.852;7.102;2022-12-05T17:20:02;4.20;99.90